Grangemouth, United Kingdom
Current Conditions -  °F | °C
As of 3:50 PM on Friday 19 Dec 2014 (Local Time) from EGPH Reporting Station
Rain Showers Rain Showers  
Wind Chill: 30°   Ceiling: Unl
Heat Index: 39°   Visibility: 6mi
Dew Point: 36°   Wind: 20mph
Humidity: 87%   Direction: 270°W
Pressure: 29.68"   Gusts: 36mph
Location:  56.01°N, 3.72°W
Report Text: EGPH 191550Z 27017G31KT 9000 -SHRA SCT017CB SCT025 04/02 Q1005
Loading
Personal Weather Stations






























Interactive Weather Map New forecast layout! Learn more

10-Day Weather Forecast

Advertisements
Track Severe Weather on mobile